sensor_id;sensor_type;location;lat;lon;timestamp;P1;durP1;ratioP1;P2;durP2;ratioP2
22973;SDS011;11653;50.848;4.584;2022-09-09T00:01:08;5.57;;;1.83;;
22973;SDS011;11653;50.848;4.584;2022-09-09T00:21:07;4.30;;;1.90;;
22973;SDS011;11653;50.848;4.584;2022-09-09T00:23:53;5.43;;;2.00;;
22973;SDS011;11653;50.848;4.584;2022-09-09T00:31:43;10.87;;;2.30;;
22973;SDS011;11653;50.848;4.584;2022-09-09T00:34:11;9.07;;;2.17;;
22973;SDS011;11653;50.848;4.584;2022-09-09T00:36:39;4.43;;;2.00;;
22973;SDS011;11653;50.848;4.584;2022-09-09T00:39:08;7.93;;;2.03;;
22973;SDS011;11653;50.848;4.584;2022-09-09T00:41:51;8.07;;;2.03;;
22973;SDS011;11653;50.848;4.584;2022-09-09T00:44:52;7.60;;;1.83;;
22973;SDS011;11653;50.848;4.584;2022-09-09T00:47:34;8.60;;;2.10;;
22973;SDS011;11653;50.848;4.584;2022-09-09T00:58:30;6.57;;;2.03;;
22973;SDS011;11653;50.848;4.584;2022-09-09T01:00:58;5.60;;;2.03;;
22973;SDS011;11653;50.848;4.584;2022-09-09T01:11:55;9.73;;;2.37;;
22973;SDS011;11653;50.848;4.584;2022-09-09T01:14:27;13.40;;;2.20;;
22973;SDS011;11653;50.848;4.584;2022-09-09T01:17:15;8.93;;;2.00;;
22973;SDS011;11653;50.848;4.584;2022-09-09T01:22:22;8.63;;;1.80;;
22973;SDS011;11653;50.848;4.584;2022-09-09T01:27:51;6.63;;;2.10;;
22973;SDS011;11653;50.848;4.584;2022-09-09T01:30:21;8.77;;;2.20;;
22973;SDS011;11653;50.848;4.584;2022-09-09T01:32:52;9.13;;;2.30;;
22973;SDS011;11653;50.848;4.584;2022-09-09T01:38:11;13.00;;;2.33;;
22973;SDS011;11653;50.848;4.584;2022-09-09T01:40:37;6.20;;;1.80;;
22973;SDS011;11653;50.848;4.584;2022-09-09T01:43:04;12.67;;;2.40;;
22973;SDS011;11653;50.848;4.584;2022-09-09T01:45:31;9.47;;;2.10;;
22973;SDS011;11653;50.848;4.584;2022-09-09T01:47:57;6.53;;;2.27;;
22973;SDS011;11653;50.848;4.584;2022-09-09T01:50:24;5.93;;;2.03;;
22973;SDS011;11653;50.848;4.584;2022-09-09T01:52:52;10.60;;;2.03;;
22973;SDS011;11653;50.848;4.584;2022-09-09T01:55:33;9.30;;;2.63;;
22973;SDS011;11653;50.848;4.584;2022-09-09T02:00:59;9.37;;;2.50;;
22973;SDS011;11653;50.848;4.584;2022-09-09T02:03:47;5.80;;;2.17;;
22973;SDS011;11653;50.848;4.584;2022-09-09T02:06:36;9.67;;;2.43;;
22973;SDS011;11653;50.848;4.584;2022-09-09T02:09:05;11.10;;;2.50;;
22973;SDS011;11653;50.848;4.584;2022-09-09T02:11:32;8.90;;;2.40;;
22973;SDS011;11653;50.848;4.584;2022-09-09T02:14:08;11.33;;;2.40;;
22973;SDS011;11653;50.848;4.584;2022-09-09T02:16:40;8.23;;;1.97;;
22973;SDS011;11653;50.848;4.584;2022-09-09T02:19:15;12.50;;;2.47;;
22973;SDS011;11653;50.848;4.584;2022-09-09T02:22:03;12.73;;;2.83;;
22973;SDS011;11653;50.848;4.584;2022-09-09T02:24:29;6.37;;;2.40;;
22973;SDS011;11653;50.848;4.584;2022-09-09T02:26:58;9.77;;;2.43;;
22973;SDS011;11653;50.848;4.584;2022-09-09T02:29:30;14.97;;;2.60;;
22973;SDS011;11653;50.848;4.584;2022-09-09T02:32:00;11.87;;;2.43;;
22973;SDS011;11653;50.848;4.584;2022-09-09T02:34:30;8.83;;;2.87;;
22973;SDS011;11653;50.848;4.584;2022-09-09T02:36:59;6.57;;;2.67;;
22973;SDS011;11653;50.848;4.584;2022-09-09T02:39:26;8.57;;;2.43;;
22973;SDS011;11653;50.848;4.584;2022-09-09T02:41:52;12.50;;;2.97;;
22973;SDS011;11653;50.848;4.584;2022-09-09T02:44:18;12.80;;;2.70;;
22973;SDS011;11653;50.848;4.584;2022-09-09T02:46:58;8.30;;;2.60;;
22973;SDS011;11653;50.848;4.584;2022-09-09T02:52:15;9.40;;;2.23;;
22973;SDS011;11653;50.848;4.584;2022-09-09T02:54:47;12.00;;;2.57;;
22973;SDS011;11653;50.848;4.584;2022-09-09T02:57:28;11.80;;;2.83;;
22973;SDS011;11653;50.848;4.584;2022-09-09T02:59:57;11.80;;;2.53;;
22973;SDS011;11653;50.848;4.584;2022-09-09T03:02:23;9.80;;;2.63;;
22973;SDS011;11653;50.848;4.584;2022-09-09T03:04:50;12.23;;;2.77;;
22973;SDS011;11653;50.848;4.584;2022-09-09T03:07:17;9.87;;;2.27;;
22973;SDS011;11653;50.848;4.584;2022-09-09T03:09:43;17.27;;;2.97;;
22973;SDS011;11653;50.848;4.584;2022-09-09T03:12:09;15.47;;;2.77;;
22973;SDS011;11653;50.848;4.584;2022-09-09T03:14:36;8.33;;;2.17;;
22973;SDS011;11653;50.848;4.584;2022-09-09T03:17:03;6.10;;;2.30;;
22973;SDS011;11653;50.848;4.584;2022-09-09T03:19:29;7.87;;;2.20;;
22973;SDS011;11653;50.848;4.584;2022-09-09T03:21:55;10.03;;;2.30;;
22973;SDS011;11653;50.848;4.584;2022-09-09T03:24:21;11.67;;;2.63;;
22973;SDS011;11653;50.848;4.584;2022-09-09T03:26:47;11.97;;;2.50;;
22973;SDS011;11653;50.848;4.584;2022-09-09T03:29:13;4.13;;;2.40;;
22973;SDS011;11653;50.848;4.584;2022-09-09T03:31:39;14.60;;;3.20;;
22973;SDS011;11653;50.848;4.584;2022-09-09T03:34:06;9.77;;;2.70;;
22973;SDS011;11653;50.848;4.584;2022-09-09T03:36:32;14.30;;;2.80;;
22973;SDS011;11653;50.848;4.584;2022-09-09T03:38:57;6.30;;;2.60;;
22973;SDS011;11653;50.848;4.584;2022-09-09T03:41:24;12.53;;;2.87;;
22973;SDS011;11653;50.848;4.584;2022-09-09T03:43:53;13.03;;;2.70;;
22973;SDS011;11653;50.848;4.584;2022-09-09T03:46:19;4.97;;;2.33;;
22973;SDS011;11653;50.848;4.584;2022-09-09T03:48:47;11.23;;;2.70;;
22973;SDS011;11653;50.848;4.584;2022-09-09T03:51:12;10.80;;;2.87;;
22973;SDS011;11653;50.848;4.584;2022-09-09T03:53:38;11.77;;;3.00;;
22973;SDS011;11653;50.848;4.584;2022-09-09T03:56:05;13.77;;;2.90;;
22973;SDS011;11653;50.848;4.584;2022-09-09T03:58:32;7.50;;;2.33;;
22973;SDS011;11653;50.848;4.584;2022-09-09T04:01:06;15.53;;;2.80;;
22973;SDS011;11653;50.848;4.584;2022-09-09T04:03:38;8.60;;;2.90;;
22973;SDS011;11653;50.848;4.584;2022-09-09T04:06:05;7.27;;;2.37;;
22973;SDS011;11653;50.848;4.584;2022-09-09T04:08:32;10.47;;;2.70;;
22973;SDS011;11653;50.848;4.584;2022-09-09T04:10:59;10.50;;;2.50;;
22973;SDS011;11653;50.848;4.584;2022-09-09T04:13:26;11.40;;;2.40;;
22973;SDS011;11653;50.848;4.584;2022-09-09T04:15:59;11.13;;;2.80;;
22973;SDS011;11653;50.848;4.584;2022-09-09T04:18:26;13.77;;;2.67;;
22973;SDS011;11653;50.848;4.584;2022-09-09T04:20:53;12.77;;;2.47;;
22973;SDS011;11653;50.848;4.584;2022-09-09T04:23:19;10.63;;;2.63;;
22973;SDS011;11653;50.848;4.584;2022-09-09T04:25:49;11.23;;;3.03;;
22973;SDS011;11653;50.848;4.584;2022-09-09T04:28:20;16.40;;;3.03;;
22973;SDS011;11653;50.848;4.584;2022-09-09T04:30:47;13.60;;;2.90;;
22973;SDS011;11653;50.848;4.584;2022-09-09T04:33:13;8.60;;;3.03;;
22973;SDS011;11653;50.848;4.584;2022-09-09T04:35:39;10.83;;;2.87;;
22973;SDS011;11653;50.848;4.584;2022-09-09T04:38:13;11.37;;;2.80;;
22973;SDS011;11653;50.848;4.584;2022-09-09T04:40:41;9.77;;;3.27;;
22973;SDS011;11653;50.848;4.584;2022-09-09T04:43:14;9.40;;;2.60;;
22973;SDS011;11653;50.848;4.584;2022-09-09T04:45:41;11.07;;;3.27;;
22973;SDS011;11653;50.848;4.584;2022-09-09T04:48:07;9.73;;;3.13;;
22973;SDS011;11653;50.848;4.584;2022-09-09T04:50:34;11.67;;;2.60;;
22973;SDS011;11653;50.848;4.584;2022-09-09T04:53:01;8.73;;;3.33;;
22973;SDS011;11653;50.848;4.584;2022-09-09T04:55:27;12.50;;;2.97;;
22973;SDS011;11653;50.848;4.584;2022-09-09T04:57:53;13.87;;;3.00;;
22973;SDS011;11653;50.848;4.584;2022-09-09T05:00:19;10.93;;;3.20;;
22973;SDS011;11653;50.848;4.584;2022-09-09T05:02:45;19.73;;;3.37;;
22973;SDS011;11653;50.848;4.584;2022-09-09T05:05:11;15.27;;;3.13;;
22973;SDS011;11653;50.848;4.584;2022-09-09T05:07:37;17.03;;;3.30;;
22973;SDS011;11653;50.848;4.584;2022-09-09T05:10:02;12.97;;;3.13;;
22973;SDS011;11653;50.848;4.584;2022-09-09T05:12:30;12.63;;;3.20;;
22973;SDS011;11653;50.848;4.584;2022-09-09T05:14:56;13.07;;;3.80;;
22973;SDS011;11653;50.848;4.584;2022-09-09T05:17:22;9.47;;;3.40;;
22973;SDS011;11653;50.848;4.584;2022-09-09T05:19:48;10.00;;;3.23;;
22973;SDS011;11653;50.848;4.584;2022-09-09T05:22:18;13.10;;;2.70;;
22973;SDS011;11653;50.848;4.584;2022-09-09T05:24:48;13.67;;;3.87;;
22973;SDS011;11653;50.848;4.584;2022-09-09T05:27:15;14.13;;;3.33;;
22973;SDS011;11653;50.848;4.584;2022-09-09T05:29:44;12.13;;;3.33;;
22973;SDS011;11653;50.848;4.584;2022-09-09T05:32:10;8.43;;;3.23;;
22973;SDS011;11653;50.848;4.584;2022-09-09T05:34:36;13.77;;;2.83;;
22973;SDS011;11653;50.848;4.584;2022-09-09T05:37:05;16.83;;;3.50;;
22973;SDS011;11653;50.848;4.584;2022-09-09T05:39:31;11.80;;;3.63;;
22973;SDS011;11653;50.848;4.584;2022-09-09T05:41:57;12.33;;;3.20;;
22973;SDS011;11653;50.848;4.584;2022-09-09T05:44:23;9.73;;;2.97;;
22973;SDS011;11653;50.848;4.584;2022-09-09T05:46:52;14.00;;;3.13;;
22973;SDS011;11653;50.848;4.584;2022-09-09T05:49:19;11.97;;;2.63;;
22973;SDS011;11653;50.848;4.584;2022-09-09T05:51:45;14.63;;;2.80;;
22973;SDS011;11653;50.848;4.584;2022-09-09T05:54:11;8.83;;;2.70;;
22973;SDS011;11653;50.848;4.584;2022-09-09T05:56:40;12.97;;;3.30;;
22973;SDS011;11653;50.848;4.584;2022-09-09T05:59:06;9.47;;;2.47;;
22973;SDS011;11653;50.848;4.584;2022-09-09T06:01:33;15.03;;;2.60;;
22973;SDS011;11653;50.848;4.584;2022-09-09T06:04:00;11.00;;;4.77;;
22973;SDS011;11653;50.848;4.584;2022-09-09T06:06:26;13.60;;;2.40;;
22973;SDS011;11653;50.848;4.584;2022-09-09T06:08:57;8.03;;;2.23;;
22973;SDS011;11653;50.848;4.584;2022-09-09T06:11:30;10.27;;;4.10;;
22973;SDS011;11653;50.848;4.584;2022-09-09T06:13:56;10.73;;;2.40;;
22973;SDS011;11653;50.848;4.584;2022-09-09T06:16:22;11.87;;;2.27;;
22973;SDS011;11653;50.848;4.584;2022-09-09T06:18:50;12.60;;;2.27;;
22973;SDS011;11653;50.848;4.584;2022-09-09T06:21:32;9.23;;;2.57;;
22973;SDS011;11653;50.848;4.584;2022-09-09T06:24:00;11.73;;;2.77;;
22973;SDS011;11653;50.848;4.584;2022-09-09T06:26:29;6.60;;;2.20;;
22973;SDS011;11653;50.848;4.584;2022-09-09T06:28:59;11.17;;;2.57;;
22973;SDS011;11653;50.848;4.584;2022-09-09T06:31:28;11.27;;;2.13;;
22973;SDS011;11653;50.848;4.584;2022-09-09T06:33:55;12.60;;;2.43;;
22973;SDS011;11653;50.848;4.584;2022-09-09T06:36:23;10.90;;;2.43;;
22973;SDS011;11653;50.848;4.584;2022-09-09T06:38:49;14.67;;;2.40;;
22973;SDS011;11653;50.848;4.584;2022-09-09T06:41:16;9.93;;;2.37;;
22973;SDS011;11653;50.848;4.584;2022-09-09T06:43:43;8.03;;;2.40;;
22973;SDS011;11653;50.848;4.584;2022-09-09T06:46:17;8.93;;;2.47;;
22973;SDS011;11653;50.848;4.584;2022-09-09T06:48:47;10.97;;;2.20;;
22973;SDS011;11653;50.848;4.584;2022-09-09T06:51:16;9.17;;;2.60;;
22973;SDS011;11653;50.848;4.584;2022-09-09T06:53:52;6.63;;;2.27;;
22973;SDS011;11653;50.848;4.584;2022-09-09T06:56:26;9.20;;;2.23;;
22973;SDS011;11653;50.848;4.584;2022-09-09T06:58:54;13.47;;;2.43;;
22973;SDS011;11653;50.848;4.584;2022-09-09T07:01:23;9.47;;;2.27;;
22973;SDS011;11653;50.848;4.584;2022-09-09T07:03:51;17.13;;;3.37;;
22973;SDS011;11653;50.848;4.584;2022-09-09T07:06:23;7.23;;;2.17;;
22973;SDS011;11653;50.848;4.584;2022-09-09T07:08:54;16.27;;;3.10;;
22973;SDS011;11653;50.848;4.584;2022-09-09T07:11:23;8.20;;;2.33;;
22973;SDS011;11653;50.848;4.584;2022-09-09T07:13:53;15.30;;;2.67;;
22973;SDS011;11653;50.848;4.584;2022-09-09T07:16:20;9.27;;;2.10;;
22973;SDS011;11653;50.848;4.584;2022-09-09T07:18:49;6.03;;;2.07;;
22973;SDS011;11653;50.848;4.584;2022-09-09T07:21:16;8.67;;;1.93;;
22973;SDS011;11653;50.848;4.584;2022-09-09T07:23:43;9.97;;;2.30;;
22973;SDS011;11653;50.848;4.584;2022-09-09T07:26:09;13.27;;;2.27;;
22973;SDS011;11653;50.848;4.584;2022-09-09T07:28:42;11.50;;;2.20;;
22973;SDS011;11653;50.848;4.584;2022-09-09T07:31:15;7.47;;;1.67;;
22973;SDS011;11653;50.848;4.584;2022-09-09T07:33:43;8.47;;;2.47;;
22973;SDS011;11653;50.848;4.584;2022-09-09T07:36:14;8.77;;;2.67;;
22973;SDS011;11653;50.848;4.584;2022-09-09T07:38:41;9.63;;;2.33;;
22973;SDS011;11653;50.848;4.584;2022-09-09T07:41:10;11.50;;;2.43;;
22973;SDS011;11653;50.848;4.584;2022-09-09T07:43:39;7.60;;;1.87;;
22973;SDS011;11653;50.848;4.584;2022-09-09T07:46:06;10.60;;;2.00;;
22973;SDS011;11653;50.848;4.584;2022-09-09T07:48:32;9.37;;;2.47;;
22973;SDS011;11653;50.848;4.584;2022-09-09T07:51:03;14.33;;;2.90;;
22973;SDS011;11653;50.848;4.584;2022-09-09T07:53:43;9.83;;;2.30;;
22973;SDS011;11653;50.848;4.584;2022-09-09T07:56:10;13.40;;;3.73;;
22973;SDS011;11653;50.848;4.584;2022-09-09T07:58:37;11.00;;;2.67;;
22973;SDS011;11653;50.848;4.584;2022-09-09T08:01:08;11.90;;;2.70;;
22973;SDS011;11653;50.848;4.584;2022-09-09T08:03:38;10.33;;;2.03;;
22973;SDS011;11653;50.848;4.584;2022-09-09T08:06:05;15.70;;;2.63;;
22973;SDS011;11653;50.848;4.584;2022-09-09T08:08:32;11.27;;;2.10;;
22973;SDS011;11653;50.848;4.584;2022-09-09T08:11:06;8.77;;;2.43;;
22973;SDS011;11653;50.848;4.584;2022-09-09T08:13:35;7.20;;;1.67;;
22973;SDS011;11653;50.848;4.584;2022-09-09T08:16:08;9.00;;;1.83;;
22973;SDS011;11653;50.848;4.584;2022-09-09T08:18:36;11.33;;;2.00;;
22973;SDS011;11653;50.848;4.584;2022-09-09T08:21:10;14.97;;;1.90;;
22973;SDS011;11653;50.848;4.584;2022-09-09T08:23:42;9.77;;;2.10;;
22973;SDS011;11653;50.848;4.584;2022-09-09T08:28:37;5.57;;;2.00;;
22973;SDS011;11653;50.848;4.584;2022-09-09T08:31:14;8.83;;;1.60;;
22973;SDS011;11653;50.848;4.584;2022-09-09T08:33:42;6.40;;;1.87;;
22973;SDS011;11653;50.848;4.584;2022-09-09T08:36:10;8.20;;;2.53;;
22973;SDS011;11653;50.848;4.584;2022-09-09T08:38:40;6.00;;;1.40;;
22973;SDS011;11653;50.848;4.584;2022-09-09T08:49:49;7.33;;;2.00;;
22973;SDS011;11653;50.848;4.584;2022-09-09T08:52:28;10.47;;;2.13;;
22973;SDS011;11653;50.848;4.584;2022-09-09T08:55:05;6.33;;;2.00;;
22973;SDS011;11653;50.848;4.584;2022-09-09T08:57:55;7.17;;;1.73;;
22973;SDS011;11653;50.848;4.584;2022-09-09T09:00:22;2.67;;;1.50;;
22973;SDS011;11653;50.848;4.584;2022-09-09T09:08:39;7.33;;;2.30;;
22973;SDS011;11653;50.848;4.584;2022-09-09T09:11:14;12.27;;;3.90;;
22973;SDS011;11653;50.848;4.584;2022-09-09T09:13:45;9.63;;;2.13;;
22973;SDS011;11653;50.848;4.584;2022-09-09T09:19:11;8.93;;;1.90;;
22973;SDS011;11653;50.848;4.584;2022-09-09T09:21:41;7.53;;;2.07;;
22973;SDS011;11653;50.848;4.584;2022-09-09T09:24:15;7.37;;;1.97;;
22973;SDS011;11653;50.848;4.584;2022-09-09T09:26:48;6.50;;;2.20;;
22973;SDS011;11653;50.848;4.584;2022-09-09T09:29:15;6.17;;;1.67;;
22973;SDS011;11653;50.848;4.584;2022-09-09T09:31:46;6.97;;;2.30;;
22973;SDS011;11653;50.848;4.584;2022-09-09T09:34:16;8.93;;;1.97;;
22973;SDS011;11653;50.848;4.584;2022-09-09T09:36:43;7.77;;;2.13;;
22973;SDS011;11653;50.848;4.584;2022-09-09T09:39:22;7.97;;;2.10;;
22973;SDS011;11653;50.848;4.584;2022-09-09T09:41:52;12.30;;;2.77;;
22973;SDS011;11653;50.848;4.584;2022-09-09T09:44:29;7.93;;;2.23;;
22973;SDS011;11653;50.848;4.584;2022-09-09T09:49:39;7.27;;;2.30;;
22973;SDS011;11653;50.848;4.584;2022-09-09T09:52:17;9.20;;;2.23;;
22973;SDS011;11653;50.848;4.584;2022-09-09T09:54:48;7.33;;;2.40;;
22973;SDS011;11653;50.848;4.584;2022-09-09T09:57:15;12.57;;;2.70;;
22973;SDS011;11653;50.848;4.584;2022-09-09T09:59:42;8.23;;;2.60;;
22973;SDS011;11653;50.848;4.584;2022-09-09T10:02:16;7.60;;;1.80;;
22973;SDS011;11653;50.848;4.584;2022-09-09T10:05:35;11.13;;;2.70;;
22973;SDS011;11653;50.848;4.584;2022-09-09T10:07:40;10.20;;;2.90;;
22973;SDS011;11653;50.848;4.584;2022-09-09T10:10:08;12.20;;;3.10;;
22973;SDS011;11653;50.848;4.584;2022-09-09T10:13:01;5.47;;;2.03;;
22973;SDS011;11653;50.848;4.584;2022-09-09T10:23:46;5.70;;;2.27;;
22973;SDS011;11653;50.848;4.584;2022-09-09T10:32:16;7.17;;;1.93;;
22973;SDS011;11653;50.848;4.584;2022-09-09T10:38:15;6.13;;;2.10;;
22973;SDS011;11653;50.848;4.584;2022-09-09T10:40:47;8.47;;;2.07;;
22973;SDS011;11653;50.848;4.584;2022-09-09T10:56:55;6.70;;;2.50;;
22973;SDS011;11653;50.848;4.584;2022-09-09T10:59:32;10.13;;;2.10;;
22973;SDS011;11653;50.848;4.584;2022-09-09T11:04:39;8.70;;;2.83;;
22973;SDS011;11653;50.848;4.584;2022-09-09T11:07:10;7.77;;;1.87;;
22973;SDS011;11653;50.848;4.584;2022-09-09T11:09:41;9.07;;;2.10;;
22973;SDS011;11653;50.848;4.584;2022-09-09T11:12:15;8.23;;;2.20;;
22973;SDS011;11653;50.848;4.584;2022-09-09T11:17:18;9.30;;;2.20;;
22973;SDS011;11653;50.848;4.584;2022-09-09T11:19:46;9.77;;;2.13;;
22973;SDS011;11653;50.848;4.584;2022-09-09T11:22:32;4.77;;;1.63;;
22973;SDS011;11653;50.848;4.584;2022-09-09T11:28:20;5.27;;;1.97;;
22973;SDS011;11653;50.848;4.584;2022-09-09T11:36:13;7.20;;;1.83;;
22973;SDS011;11653;50.848;4.584;2022-09-09T11:44:39;6.33;;;1.50;;
22973;SDS011;11653;50.848;4.584;2022-09-09T11:47:24;8.37;;;1.80;;
22973;SDS011;11653;50.848;4.584;2022-09-09T11:50:10;5.27;;;1.40;;
22973;SDS011;11653;50.848;4.584;2022-09-09T11:52:40;10.20;;;1.50;;
22973;SDS011;11653;50.848;4.584;2022-09-09T11:55:24;7.30;;;2.13;;
22973;SDS011;11653;50.848;4.584;2022-09-09T12:00:39;7.53;;;1.23;;
22973;SDS011;11653;50.848;4.584;2022-09-09T12:09:09;5.47;;;1.40;;
22973;SDS011;11653;50.848;4.584;2022-09-09T12:11:51;3.83;;;1.50;;
22973;SDS011;11653;50.848;4.584;2022-09-09T12:15:00;5.33;;;1.47;;
22973;SDS011;11653;50.848;4.584;2022-09-09T12:17:22;8.90;;;1.67;;
22973;SDS011;11653;50.848;4.584;2022-09-09T12:20:35;6.37;;;1.70;;
22973;SDS011;11653;50.848;4.584;2022-09-09T12:25:57;5.07;;;1.83;;
22973;SDS011;11653;50.848;4.584;2022-09-09T12:28:56;7.87;;;1.50;;
22973;SDS011;11653;50.848;4.584;2022-09-09T12:34:11;6.43;;;1.50;;
22973;SDS011;11653;50.848;4.584;2022-09-09T12:36:45;7.80;;;1.77;;
22973;SDS011;11653;50.848;4.584;2022-09-09T12:39:19;6.37;;;1.80;;
22973;SDS011;11653;50.848;4.584;2022-09-09T12:42:17;5.30;;;1.40;;
22973;SDS011;11653;50.848;4.584;2022-09-09T12:44:54;5.70;;;1.57;;
22973;SDS011;11653;50.848;4.584;2022-09-09T12:50:02;6.60;;;1.53;;
22973;SDS011;11653;50.848;4.584;2022-09-09T12:52:30;8.17;;;2.00;;
22973;SDS011;11653;50.848;4.584;2022-09-09T12:54:59;3.37;;;1.30;;
22973;SDS011;11653;50.848;4.584;2022-09-09T12:57:28;6.63;;;1.50;;
22973;SDS011;11653;50.848;4.584;2022-09-09T13:00:12;5.63;;;1.40;;
22973;SDS011;11653;50.848;4.584;2022-09-09T13:02:51;7.13;;;1.63;;
22973;SDS011;11653;50.848;4.584;2022-09-09T13:05:23;6.60;;;1.57;;
22973;SDS011;11653;50.848;4.584;2022-09-09T13:07:51;6.60;;;1.30;;
22973;SDS011;11653;50.848;4.584;2022-09-09T13:10:21;3.87;;;1.30;;
22973;SDS011;11653;50.848;4.584;2022-09-09T13:12:49;3.33;;;1.27;;
22973;SDS011;11653;50.848;4.584;2022-09-09T13:15:22;7.63;;;1.40;;
22973;SDS011;11653;50.848;4.584;2022-09-09T13:17:50;3.97;;;1.27;;
22973;SDS011;11653;50.848;4.584;2022-09-09T13:20:18;3.87;;;1.30;;
22973;SDS011;11653;50.848;4.584;2022-09-09T13:22:45;6.43;;;1.13;;
22973;SDS011;11653;50.848;4.584;2022-09-09T13:25:21;5.17;;;1.10;;
22973;SDS011;11653;50.848;4.584;2022-09-09T13:27:56;3.10;;;1.10;;
22973;SDS011;11653;50.848;4.584;2022-09-09T13:30:30;4.03;;;1.20;;
22973;SDS011;11653;50.848;4.584;2022-09-09T13:35:29;4.23;;;1.60;;
22973;SDS011;11653;50.848;4.584;2022-09-09T13:37:55;6.83;;;1.33;;
22973;SDS011;11653;50.848;4.584;2022-09-09T13:40:22;4.20;;;1.10;;
22973;SDS011;11653;50.848;4.584;2022-09-09T13:42:53;6.60;;;1.50;;
22973;SDS011;11653;50.848;4.584;2022-09-09T13:45:22;5.00;;;1.20;;
22973;SDS011;11653;50.848;4.584;2022-09-09T13:47:51;5.73;;;1.17;;
22973;SDS011;11653;50.848;4.584;2022-09-09T13:52:54;4.03;;;1.50;;
22973;SDS011;11653;50.848;4.584;2022-09-09T13:55:23;4.07;;;1.40;;
22973;SDS011;11653;50.848;4.584;2022-09-09T13:57:57;4.37;;;1.27;;
22973;SDS011;11653;50.848;4.584;2022-09-09T14:00:28;4.03;;;0.80;;
22973;SDS011;11653;50.848;4.584;2022-09-09T14:02:56;7.37;;;1.47;;
22973;SDS011;11653;50.848;4.584;2022-09-09T14:05:21;5.07;;;1.00;;
22973;SDS011;11653;50.848;4.584;2022-09-09T14:07:47;4.90;;;1.50;;
22973;SDS011;11653;50.848;4.584;2022-09-09T14:10:14;3.97;;;1.20;;
22973;SDS011;11653;50.848;4.584;2022-09-09T14:12:40;3.00;;;1.10;;
22973;SDS011;11653;50.848;4.584;2022-09-09T14:15:06;8.47;;;1.53;;
22973;SDS011;11653;50.848;4.584;2022-09-09T14:17:34;4.47;;;1.70;;
22973;SDS011;11653;50.848;4.584;2022-09-09T14:20:01;2.83;;;0.90;;
22973;SDS011;11653;50.848;4.584;2022-09-09T14:22:30;4.30;;;1.30;;
22973;SDS011;11653;50.848;4.584;2022-09-09T14:24:56;2.30;;;1.20;;
22973;SDS011;11653;50.848;4.584;2022-09-09T14:27:22;4.43;;;1.27;;
22973;SDS011;11653;50.848;4.584;2022-09-09T14:29:48;3.33;;;1.00;;
22973;SDS011;11653;50.848;4.584;2022-09-09T14:32:13;4.13;;;1.17;;
22973;SDS011;11653;50.848;4.584;2022-09-09T14:34:39;6.77;;;1.30;;
22973;SDS011;11653;50.848;4.584;2022-09-09T14:37:05;5.13;;;1.30;;
22973;SDS011;11653;50.848;4.584;2022-09-09T14:39:31;5.87;;;1.20;;
22973;SDS011;11653;50.848;4.584;2022-09-09T14:41:57;4.83;;;1.27;;
22973;SDS011;11653;50.848;4.584;2022-09-09T14:44:23;3.30;;;1.30;;
22973;SDS011;11653;50.848;4.584;2022-09-09T14:46:49;4.07;;;1.30;;
22973;SDS011;11653;50.848;4.584;2022-09-09T14:49:15;4.97;;;1.20;;
22973;SDS011;11653;50.848;4.584;2022-09-09T14:51:41;4.77;;;1.37;;
22973;SDS011;11653;50.848;4.584;2022-09-09T14:54:07;4.70;;;1.40;;
22973;SDS011;11653;50.848;4.584;2022-09-09T14:56:33;6.03;;;1.70;;
22973;SDS011;11653;50.848;4.584;2022-09-09T14:59:03;3.17;;;1.23;;
22973;SDS011;11653;50.848;4.584;2022-09-09T15:01:29;7.00;;;1.37;;
22973;SDS011;11653;50.848;4.584;2022-09-09T15:04:00;6.80;;;1.73;;
22973;SDS011;11653;50.848;4.584;2022-09-09T15:06:29;7.87;;;1.37;;
22973;SDS011;11653;50.848;4.584;2022-09-09T15:08:58;3.33;;;1.40;;
22973;SDS011;11653;50.848;4.584;2022-09-09T15:11:30;5.53;;;1.37;;
22973;SDS011;11653;50.848;4.584;2022-09-09T15:14:02;6.33;;;1.60;;
22973;SDS011;11653;50.848;4.584;2022-09-09T15:16:31;1.73;;;1.00;;
22973;SDS011;11653;50.848;4.584;2022-09-09T15:18:58;5.50;;;1.20;;
22973;SDS011;11653;50.848;4.584;2022-09-09T15:21:29;5.90;;;1.63;;
22973;SDS011;11653;50.848;4.584;2022-09-09T15:23:57;5.70;;;1.50;;
22973;SDS011;11653;50.848;4.584;2022-09-09T15:26:24;3.77;;;1.47;;
22973;SDS011;11653;50.848;4.584;2022-09-09T15:28:50;2.73;;;1.27;;
22973;SDS011;11653;50.848;4.584;2022-09-09T15:31:17;5.00;;;1.20;;
22973;SDS011;11653;50.848;4.584;2022-09-09T15:33:48;3.43;;;1.40;;
22973;SDS011;11653;50.848;4.584;2022-09-09T15:36:19;3.97;;;1.10;;
22973;SDS011;11653;50.848;4.584;2022-09-09T15:38:45;6.53;;;1.67;;
22973;SDS011;11653;50.848;4.584;2022-09-09T15:41:11;3.90;;;1.00;;
22973;SDS011;11653;50.848;4.584;2022-09-09T15:43:38;4.83;;;1.27;;
22973;SDS011;11653;50.848;4.584;2022-09-09T15:48:42;2.40;;;1.00;;
22973;SDS011;11653;50.848;4.584;2022-09-09T15:51:09;5.00;;;1.67;;
22973;SDS011;11653;50.848;4.584;2022-09-09T15:53:36;3.13;;;1.57;;
22973;SDS011;11653;50.848;4.584;2022-09-09T15:56:04;5.07;;;1.03;;
22973;SDS011;11653;50.848;4.584;2022-09-09T15:58:31;3.07;;;1.27;;
22973;SDS011;11653;50.848;4.584;2022-09-09T16:01:07;6.53;;;1.60;;
22973;SDS011;11653;50.848;4.584;2022-09-09T16:03:34;4.43;;;1.23;;
22973;SDS011;11653;50.848;4.584;2022-09-09T16:06:01;7.20;;;1.70;;
22973;SDS011;11653;50.848;4.584;2022-09-09T16:08:32;5.50;;;1.17;;
22973;SDS011;11653;50.848;4.584;2022-09-09T16:11:08;7.20;;;1.57;;
22973;SDS011;11653;50.848;4.584;2022-09-09T16:13:37;3.93;;;1.17;;
22973;SDS011;11653;50.848;4.584;2022-09-09T16:16:04;5.07;;;1.10;;
22973;SDS011;11653;50.848;4.584;2022-09-09T16:18:35;3.13;;;1.20;;
22973;SDS011;11653;50.848;4.584;2022-09-09T16:21:08;3.17;;;1.33;;
22973;SDS011;11653;50.848;4.584;2022-09-09T16:23:42;4.87;;;1.40;;
22973;SDS011;11653;50.848;4.584;2022-09-09T16:26:12;5.80;;;1.50;;
22973;SDS011;11653;50.848;4.584;2022-09-09T16:28:40;5.13;;;1.63;;
22973;SDS011;11653;50.848;4.584;2022-09-09T16:31:06;5.00;;;1.60;;
22973;SDS011;11653;50.848;4.584;2022-09-09T16:33:35;5.20;;;1.17;;
22973;SDS011;11653;50.848;4.584;2022-09-09T16:36:04;3.23;;;1.33;;
22973;SDS011;11653;50.848;4.584;2022-09-09T16:38:39;4.10;;;1.40;;
22973;SDS011;11653;50.848;4.584;2022-09-09T16:41:05;9.57;;;1.70;;
22973;SDS011;11653;50.848;4.584;2022-09-09T16:43:35;8.60;;;2.30;;
22973;SDS011;11653;50.848;4.584;2022-09-09T16:46:02;5.77;;;1.83;;
22973;SDS011;11653;50.848;4.584;2022-09-09T16:48:32;3.43;;;2.17;;
22973;SDS011;11653;50.848;4.584;2022-09-09T16:51:02;6.13;;;3.00;;
22973;SDS011;11653;50.848;4.584;2022-09-09T16:53:31;3.43;;;1.33;;
22973;SDS011;11653;50.848;4.584;2022-09-09T16:55:58;3.23;;;1.10;;
22973;SDS011;11653;50.848;4.584;2022-09-09T16:58:29;2.93;;;1.10;;
22973;SDS011;11653;50.848;4.584;2022-09-09T17:00:58;3.47;;;1.30;;
22973;SDS011;11653;50.848;4.584;2022-09-09T17:03:25;3.17;;;1.23;;
22973;SDS011;11653;50.848;4.584;2022-09-09T17:05:51;2.50;;;1.30;;
22973;SDS011;11653;50.848;4.584;2022-09-09T17:08:16;2.47;;;1.20;;
22973;SDS011;11653;50.848;4.584;2022-09-09T17:10:42;2.63;;;1.30;;
22973;SDS011;11653;50.848;4.584;2022-09-09T17:13:08;3.93;;;1.50;;
22973;SDS011;11653;50.848;4.584;2022-09-09T17:15:38;2.20;;;1.20;;
22973;SDS011;11653;50.848;4.584;2022-09-09T17:18:09;2.77;;;1.40;;
22973;SDS011;11653;50.848;4.584;2022-09-09T17:20:39;3.20;;;1.20;;
22973;SDS011;11653;50.848;4.584;2022-09-09T17:23:09;2.60;;;1.00;;
22973;SDS011;11653;50.848;4.584;2022-09-09T17:25:36;1.77;;;1.10;;
22973;SDS011;11653;50.848;4.584;2022-09-09T17:28:03;2.13;;;1.10;;
22973;SDS011;11653;50.848;4.584;2022-09-09T17:30:29;2.00;;;1.10;;
22973;SDS011;11653;50.848;4.584;2022-09-09T17:32:59;3.43;;;1.33;;